createdAt,value
2022-12-01T00:00:56.417Z,16.27
2022-12-01T00:06:03.541Z,13.93
2022-12-01T00:11:15.227Z,16.27
2022-12-01T00:16:19.017Z,15.90
2022-12-01T00:21:24.510Z,16.93
2022-12-01T00:26:28.713Z,16.53
2022-12-01T00:31:31.841Z,17.80
2022-12-01T00:36:35.010Z,17.20
2022-12-01T00:41:38.100Z,17.80
2022-12-01T00:46:41.487Z,19.00
2022-12-01T00:51:44.947Z,19.93
2022-12-01T00:56:48.197Z,18.00
2022-12-01T01:01:52.142Z,19.10
2022-12-01T01:06:55.529Z,20.27
2022-12-01T01:11:58.984Z,21.00
2022-12-01T01:17:02.213Z,21.43
2022-12-01T01:22:05.331Z,19.83
2022-12-01T01:27:08.405Z,22.53
2022-12-01T01:32:11.507Z,21.83
2022-12-01T01:37:14.734Z,22.27
2022-12-01T01:42:20.531Z,22.67
2022-12-01T01:47:37.625Z,24.27
2022-12-01T01:52:54.756Z,22.60
2022-12-01T01:57:58.365Z,23.33
2022-12-01T02:03:01.857Z,24.97
2022-12-01T02:08:06.202Z,22.37
2022-12-01T02:13:28.475Z,24.43
2022-12-01T02:18:44.165Z,20.57
2022-12-01T02:23:53.036Z,23.23
2022-12-01T02:29:14.864Z,23.10
2022-12-01T02:34:52.496Z,22.20
2022-12-01T02:40:20.735Z,21.67
2022-12-01T02:45:56.457Z,20.67
2022-12-01T02:51:07.456Z,20.60
2022-12-01T02:56:13.649Z,20.53
2022-12-01T03:01:21.898Z,17.57
2022-12-01T03:07:05.276Z,19.30
2022-12-01T03:12:29.346Z,18.80
2022-12-01T03:17:45.746Z,16.80
2022-12-01T03:23:02.520Z,18.57
2022-12-01T03:28:21.156Z,18.20
2022-12-01T03:33:38.761Z,16.93
2022-12-01T03:38:47.061Z,18.27
2022-12-01T03:43:58.424Z,18.43
2022-12-01T03:49:03.883Z,17.67
2022-12-01T03:54:40.357Z,16.30
2022-12-01T03:59:48.497Z,17.40
2022-12-01T04:04:52.164Z,17.93
2022-12-01T04:09:55.277Z,17.57
2022-12-01T04:14:59.986Z,15.43
2022-12-01T04:20:07.352Z,16.70
2022-12-01T04:25:11.944Z,16.17
2022-12-01T04:30:15.544Z,17.00
2022-12-01T04:35:22.395Z,17.40
2022-12-01T04:40:25.914Z,17.60
2022-12-01T04:45:29.388Z,17.90
2022-12-01T04:50:32.856Z,17.73
2022-12-01T04:55:39.736Z,16.97
2022-12-01T05:00:42.929Z,18.63
2022-12-01T05:05:46.169Z,19.33
2022-12-01T05:10:49.606Z,18.17
2022-12-01T05:15:52.751Z,17.77
2022-12-01T05:20:58.520Z,19.40
2022-12-01T05:26:03.088Z,17.67
2022-12-01T05:31:06.490Z,18.67
2022-12-01T05:36:10.009Z,19.33
2022-12-01T05:41:13.258Z,19.37
2022-12-01T05:46:16.415Z,17.87
2022-12-01T05:51:19.620Z,17.83
2022-12-01T05:56:23.820Z,16.93
2022-12-01T06:01:27.468Z,17.83
2022-12-01T06:06:30.819Z,17.97
2022-12-01T06:11:35.097Z,16.23
2022-12-01T06:16:38.580Z,16.97
2022-12-01T06:21:42.221Z,17.27
2022-12-01T06:26:45.320Z,19.17
2022-12-01T06:31:48.495Z,21.83
2022-12-01T06:36:51.777Z,16.17
2022-12-01T06:41:55.538Z,15.10
2022-12-01T06:46:58.698Z,14.63
2022-12-01T06:52:02.266Z,15.50
2022-12-01T06:57:05.923Z,13.50
2022-12-01T07:02:11.645Z,15.17
2022-12-01T07:07:15.195Z,14.97
2022-12-01T07:12:18.763Z,15.67
2022-12-01T07:17:22.010Z,14.93
2022-12-01T07:22:31.019Z,15.73
2022-12-01T07:27:36.090Z,16.20
2022-12-01T07:32:40.080Z,16.37
2022-12-01T07:37:43.450Z,15.47
2022-12-01T07:42:46.809Z,14.90
2022-12-01T07:47:54.568Z,14.47
2022-12-01T07:52:57.759Z,16.70
2022-12-01T07:58:01.398Z,14.90
2022-12-01T08:03:04.851Z,14.70
2022-12-01T08:08:08.422Z,13.07
2022-12-01T08:13:17.009Z,14.20
2022-12-01T08:18:20.878Z,14.43
2022-12-01T08:23:24.798Z,15.80
2022-12-01T08:28:28.162Z,15.03
2022-12-01T08:33:31.258Z,15.30
2022-12-01T08:38:34.729Z,14.00
2022-12-01T08:43:57.209Z,15.40
2022-12-01T08:49:03.940Z,14.33
2022-12-01T08:54:07.259Z,14.67
2022-12-01T08:59:10.624Z,14.97
2022-12-01T09:04:14.369Z,13.63
2022-12-01T09:09:26.964Z,12.73
2022-12-01T09:14:30.357Z,13.47
2022-12-01T09:19:34.145Z,14.03
2022-12-01T09:24:37.633Z,11.93
2022-12-01T09:29:40.703Z,11.63
2022-12-01T09:34:43.977Z,12.03
2022-12-01T09:39:47.865Z,12.23
2022-12-01T09:44:54.897Z,11.83
2022-12-01T09:50:25.802Z,12.57
2022-12-01T09:55:31.907Z,9.20
2022-12-01T10:00:41.228Z,11.30
2022-12-01T10:06:26.700Z,9.77
2022-12-01T10:11:40.208Z,10.20
2022-12-01T10:17:10.706Z,10.17
2022-12-01T10:22:20.538Z,10.47
2022-12-01T10:27:56.158Z,11.13
2022-12-01T10:33:08.518Z,10.93
2022-12-01T10:38:30.918Z,13.37
2022-12-01T10:43:40.076Z,10.83
2022-12-01T10:48:55.245Z,11.30
2022-12-01T10:54:00.626Z,10.63
2022-12-01T10:59:24.407Z,10.27
2022-12-01T11:04:35.151Z,10.30
2022-12-01T11:09:38.706Z,10.93
2022-12-01T11:14:53.717Z,11.53
2022-12-01T11:19:57.218Z,9.07
2022-12-01T11:25:03.109Z,10.37
2022-12-01T11:30:21.161Z,11.27
2022-12-01T11:35:28.307Z,10.77
2022-12-01T11:40:51.334Z,8.87
2022-12-01T11:45:56.537Z,9.23
2022-12-01T11:51:24.835Z,11.50
2022-12-01T11:56:31.043Z,9.60
2022-12-01T12:02:03.970Z,11.27
2022-12-01T12:07:22.840Z,12.93
2022-12-01T12:12:38.689Z,12.63
2022-12-01T12:17:54.692Z,12.70
2022-12-01T12:23:03.678Z,11.53
2022-12-01T12:28:28.227Z,11.83
2022-12-01T12:33:46.067Z,11.07
2022-12-01T12:39:16.378Z,13.40
2022-12-01T12:44:43.687Z,10.57
2022-12-01T12:49:51.237Z,11.60
2022-12-01T12:55:00.931Z,13.20
2022-12-01T13:00:18.809Z,11.43
2022-12-01T13:05:25.633Z,10.77
2022-12-01T13:10:47.346Z,10.70
2022-12-01T13:15:53.349Z,10.70
2022-12-01T13:20:58.103Z,11.47
2022-12-01T13:26:05.819Z,9.97
2022-12-01T13:31:14.890Z,9.17
2022-12-01T13:36:47.874Z,11.10
2022-12-01T13:41:44.067Z,9.83
2022-12-01T13:46:47.402Z,13.70
2022-12-01T13:52:27.033Z,10.10
2022-12-01T13:57:32.775Z,12.03
2022-12-01T14:02:36.984Z,8.37
2022-12-01T14:07:40.891Z,12.27
2022-12-01T14:12:46.821Z,12.03
2022-12-01T14:18:04.690Z,12.70
2022-12-01T14:23:26.357Z,12.23
2022-12-01T14:29:01.488Z,11.73
2022-12-01T14:34:18.892Z,10.47
2022-12-01T14:39:32.332Z,8.13
2022-12-01T14:44:56.376Z,9.40
2022-12-01T14:50:18.861Z,12.10
2022-12-01T14:55:47.040Z,12.77
2022-12-01T15:01:05.312Z,14.27
2022-12-01T15:06:16.499Z,17.73
2022-12-01T15:11:30.582Z,10.07
2022-12-01T15:16:43.738Z,8.77
2022-12-01T15:21:48.166Z,9.70
2022-12-01T15:26:57.837Z,12.10
2022-12-01T15:32:12.020Z,8.10
2022-12-01T15:37:19.241Z,8.40
2022-12-01T15:42:27.771Z,7.53
2022-12-01T15:47:38.018Z,9.10
2022-12-01T15:52:45.380Z,8.97
2022-12-01T15:57:48.851Z,7.13
2022-12-01T16:02:59.069Z,8.47
2022-12-01T16:08:16.370Z,8.63
2022-12-01T16:13:40.895Z,8.63
2022-12-01T16:18:59.943Z,9.70
2022-12-01T16:24:06.489Z,8.80
2022-12-01T16:29:23.259Z,10.70
2022-12-01T16:34:45.309Z,10.53
2022-12-01T16:39:51.637Z,15.03
2022-12-01T16:44:56.239Z,17.27
2022-12-01T16:50:01.159Z,11.40
2022-12-01T16:55:04.891Z,11.43
2022-12-01T17:00:11.578Z,11.83
2022-12-01T17:05:18.437Z,12.87
2022-12-01T17:10:22.919Z,13.40
2022-12-01T17:15:26.786Z,12.27
2022-12-01T17:20:30.948Z,13.23
2022-12-01T17:25:35.632Z,13.73
2022-12-01T17:30:39.355Z,12.90
2022-12-01T17:35:44.780Z,12.73
2022-12-01T17:41:13.479Z,13.10
2022-12-01T17:46:18.546Z,12.93
2022-12-01T17:51:24.956Z,12.47
2022-12-01T17:56:28.836Z,12.50
2022-12-01T18:01:33.380Z,11.77
2022-12-01T18:06:37.609Z,12.40
2022-12-01T18:11:42.208Z,12.13
2022-12-01T18:16:46.622Z,11.67
2022-12-01T18:21:51.026Z,12.47
2022-12-01T18:26:57.017Z,12.33
2022-12-01T18:32:02.590Z,13.97
2022-12-01T18:37:08.418Z,16.07
2022-12-01T18:42:13.560Z,17.07
2022-12-01T18:47:18.138Z,15.50
2022-12-01T18:52:23.237Z,16.53
2022-12-01T18:57:28.938Z,15.37
2022-12-01T19:02:34.220Z,16.23
2022-12-01T19:07:39.473Z,15.83
2022-12-01T19:12:54.499Z,16.17
2022-12-01T19:17:58.748Z,17.53
2022-12-01T19:23:03.174Z,17.73
2022-12-01T19:28:18.037Z,16.80
2022-12-01T19:33:23.629Z,20.93
2022-12-01T19:38:28.409Z,18.17
2022-12-01T19:43:36.186Z,20.23
2022-12-01T19:48:46.447Z,17.87
2022-12-01T19:53:51.868Z,19.37
2022-12-01T19:58:58.527Z,23.70
2022-12-01T20:04:03.795Z,29.10
2022-12-01T20:09:09.606Z,22.67
2022-12-01T20:14:15.100Z,20.23
2022-12-01T20:19:18.970Z,21.50
2022-12-01T20:24:24.418Z,21.17
2022-12-01T20:29:30.857Z,19.03
2022-12-01T20:34:38.456Z,19.33
2022-12-01T20:39:43.941Z,17.73
2022-12-01T20:44:52.795Z,17.80
2022-12-01T20:49:58.539Z,19.03
2022-12-01T20:55:04.179Z,21.87
2022-12-01T21:00:09.760Z,18.67
2022-12-01T21:05:13.908Z,18.23
2022-12-01T21:10:20.178Z,18.73
2022-12-01T21:15:32.933Z,21.13
2022-12-01T21:20:44.781Z,18.47
2022-12-01T21:25:49.899Z,20.93
2022-12-01T21:31:11.325Z,20.13
2022-12-01T21:36:21.107Z,19.87
2022-12-01T21:41:30.508Z,19.60
2022-12-01T21:46:35.940Z,22.27
2022-12-01T21:51:39.321Z,20.73
2022-12-01T21:56:43.469Z,21.70
2022-12-01T22:01:48.150Z,19.77
2022-12-01T22:06:57.203Z,22.73
2022-12-01T22:12:34.779Z,17.90
2022-12-01T22:17:38.087Z,21.33
2022-12-01T22:22:41.469Z,20.30
2022-12-01T22:27:45.040Z,20.13
2022-12-01T22:33:04.074Z,19.50
2022-12-01T22:38:07.379Z,20.03
2022-12-01T22:43:17.166Z,14.47
2022-12-01T22:48:42.948Z,14.50
2022-12-01T22:53:47.369Z,13.50
2022-12-01T22:58:50.733Z,15.37
2022-12-01T23:04:08.639Z,13.37
2022-12-01T23:09:16.038Z,15.67
2022-12-01T23:14:24.309Z,15.10
2022-12-01T23:19:27.818Z,15.10
2022-12-01T23:24:34.064Z,14.60
2022-12-01T23:29:37.987Z,13.87
2022-12-01T23:34:41.085Z,14.30
2022-12-01T23:39:51.707Z,14.83
2022-12-01T23:44:55.166Z,13.33
2022-12-01T23:50:04.923Z,12.97
2022-12-01T23:55:40.867Z,14.10
